createdAt,value
2022-09-29T00:00:19.539Z,996.61
2022-09-29T00:00:40.238Z,996.71
2022-09-29T00:01:06.392Z,996.71
2022-09-29T00:01:38.912Z,996.71
2022-09-29T00:02:10.489Z,996.61
2022-09-29T00:02:40.118Z,996.61
2022-09-29T00:02:59.410Z,996.61
2022-09-29T00:03:30.255Z,996.61
2022-09-29T00:03:47.472Z,996.51
2022-09-29T00:04:19.026Z,996.51
2022-09-29T00:04:40.084Z,996.51
2022-09-29T00:05:06.549Z,996.51
2022-09-29T00:05:38.882Z,996.51
2022-09-29T00:06:10.406Z,996.61
2022-09-29T00:06:40.105Z,996.51
2022-09-29T00:06:58.885Z,996.51
2022-09-29T00:07:30.319Z,996.51
2022-09-29T00:07:47.605Z,996.41
2022-09-29T00:08:18.982Z,996.41
2022-09-29T00:08:40.114Z,996.61
2022-09-29T00:09:06.573Z,996.61
2022-09-29T00:09:38.868Z,996.61
2022-09-29T00:10:10.975Z,996.51
2022-09-29T00:10:40.093Z,996.51
2022-09-29T00:10:58.914Z,996.51
2022-09-29T00:11:30.309Z,996.51
2022-09-29T00:11:47.617Z,996.51
2022-09-29T00:12:18.879Z,996.51
2022-09-29T00:12:40.024Z,996.61
2022-09-29T00:13:06.690Z,996.61
2022-09-29T00:13:38.880Z,996.61
2022-09-29T00:14:10.362Z,996.41
2022-09-29T00:14:41.385Z,996.31
2022-09-29T00:14:58.912Z,996.31
2022-09-29T00:15:30.428Z,996.31
2022-09-29T00:15:47.598Z,996.41
2022-09-29T00:16:19.450Z,996.41
2022-09-29T00:16:40.165Z,996.61
2022-09-29T00:17:06.445Z,996.61
2022-09-29T00:17:38.813Z,996.61
2022-09-29T00:18:14.160Z,996.31
2022-09-29T00:18:40.114Z,996.51
2022-09-29T00:18:59.036Z,996.51
2022-09-29T00:19:30.349Z,996.51
2022-09-29T00:19:47.602Z,996.41
2022-09-29T00:20:19.199Z,996.41
2022-09-29T00:20:40.143Z,996.61
2022-09-29T00:21:06.439Z,996.61
2022-09-29T00:21:39.038Z,996.61
2022-09-29T00:22:10.334Z,996.51
2022-09-29T00:22:40.114Z,996.41
2022-09-29T00:22:58.940Z,996.41
2022-09-29T00:23:30.502Z,996.41
2022-09-29T00:23:47.765Z,996.51
2022-09-29T00:24:19.117Z,996.51
2022-09-29T00:24:40.124Z,996.61
2022-09-29T00:25:06.587Z,996.61
2022-09-29T00:25:38.871Z,996.61
2022-09-29T00:26:10.488Z,996.51
2022-09-29T00:26:40.115Z,996.61
2022-09-29T00:26:59.095Z,996.61
2022-09-29T00:27:30.753Z,996.61
2022-09-29T00:27:47.618Z,996.61
2022-09-29T00:28:19.093Z,996.61
2022-09-29T00:28:40.159Z,996.61
2022-09-29T00:29:06.426Z,996.61
2022-09-29T00:29:38.995Z,996.61
2022-09-29T00:30:10.867Z,996.61
2022-09-29T00:30:40.147Z,996.61
2022-09-29T00:30:58.899Z,996.61
2022-09-29T00:31:30.610Z,996.61
2022-09-29T00:31:48.025Z,996.51
2022-09-29T00:32:18.993Z,996.51
2022-09-29T00:32:40.098Z,996.71
2022-09-29T00:33:06.390Z,996.71
2022-09-29T00:33:38.813Z,996.71
2022-09-29T00:34:10.349Z,996.51
2022-09-29T00:34:40.141Z,996.41
2022-09-29T00:34:59.419Z,996.41
2022-09-29T00:35:30.922Z,996.41
2022-09-29T00:35:48.477Z,996.71
2022-09-29T00:36:19.032Z,996.71
2022-09-29T00:36:40.072Z,996.31
2022-09-29T00:37:06.417Z,996.31
2022-09-29T00:37:38.802Z,996.31
2022-09-29T00:38:10.413Z,996.51
2022-09-29T00:38:40.093Z,996.51
2022-09-29T00:38:59.087Z,996.51
2022-09-29T00:39:30.123Z,996.51
2022-09-29T00:39:47.279Z,996.51
2022-09-29T00:40:19.578Z,996.51
2022-09-29T00:40:40.188Z,996.61
2022-09-29T00:41:06.416Z,996.61
2022-09-29T00:41:38.868Z,996.61
2022-09-29T00:42:10.878Z,996.71
2022-09-29T00:42:40.110Z,996.61
2022-09-29T00:42:58.919Z,996.61
2022-09-29T00:43:30.322Z,996.61
2022-09-29T00:43:48.175Z,996.51
2022-09-29T00:44:18.916Z,996.51
2022-09-29T00:44:40.151Z,996.71
2022-09-29T00:45:06.565Z,996.71
2022-09-29T00:45:40.194Z,996.71
2022-09-29T00:46:10.372Z,996.71
2022-09-29T00:46:40.179Z,996.61
2022-09-29T00:46:58.892Z,996.61
2022-09-29T00:47:30.284Z,996.61
2022-09-29T00:47:47.647Z,996.51
2022-09-29T00:48:19.018Z,996.51
2022-09-29T00:48:40.147Z,996.71
2022-09-29T00:49:06.399Z,996.71
2022-09-29T00:49:38.815Z,996.71
2022-09-29T00:50:10.317Z,996.71
2022-09-29T00:50:40.690Z,996.61
2022-09-29T00:50:58.887Z,996.61
2022-09-29T00:51:30.289Z,996.61
2022-09-29T00:51:47.603Z,996.51
2022-09-29T00:52:19.101Z,996.51
2022-09-29T00:52:40.090Z,996.82
2022-09-29T00:53:06.154Z,996.82
2022-09-29T00:53:38.793Z,996.82
2022-09-29T00:54:10.309Z,996.61
2022-09-29T00:54:40.146Z,996.71
2022-09-29T00:54:58.920Z,996.71
2022-09-29T00:55:30.458Z,996.71
2022-09-29T00:55:49.412Z,996.61
2022-09-29T00:56:18.932Z,996.61
2022-09-29T00:56:40.132Z,996.61
2022-09-29T00:57:06.423Z,996.61
2022-09-29T00:57:38.928Z,996.61
2022-09-29T00:58:10.427Z,996.71
2022-09-29T00:58:40.130Z,996.41
2022-09-29T00:58:58.843Z,996.41
2022-09-29T00:59:30.521Z,996.41
2022-09-29T00:59:47.936Z,996.82
2022-09-29T01:00:19.007Z,996.82
2022-09-29T01:00:40.279Z,996.41
2022-09-29T01:01:06.609Z,996.41
2022-09-29T01:01:38.844Z,996.41
2022-09-29T01:02:10.540Z,996.61
2022-09-29T01:02:40.107Z,996.51
2022-09-29T01:02:58.923Z,996.51
2022-09-29T01:03:30.329Z,996.51
2022-09-29T01:03:47.611Z,996.51
2022-09-29T01:04:19.203Z,996.51
2022-09-29T01:04:40.188Z,996.51
2022-09-29T01:05:06.469Z,996.51
2022-09-29T01:05:38.823Z,996.51
2022-09-29T01:06:11.228Z,996.51
2022-09-29T01:06:40.200Z,996.61
2022-09-29T01:06:58.806Z,996.61
2022-09-29T01:07:30.366Z,996.61
2022-09-29T01:07:47.826Z,996.41
2022-09-29T01:08:19.015Z,996.41
2022-09-29T01:08:40.199Z,996.51
2022-09-29T01:09:06.771Z,996.51
2022-09-29T01:09:39.370Z,996.51
2022-09-29T01:10:10.360Z,996.41
2022-09-29T01:10:40.151Z,996.41
2022-09-29T01:10:58.931Z,996.41
2022-09-29T01:11:30.356Z,996.41
2022-09-29T01:11:47.619Z,996.41
2022-09-29T01:12:19.166Z,996.41
2022-09-29T01:12:40.299Z,996.41
2022-09-29T01:13:06.657Z,996.41
2022-09-29T01:13:38.807Z,996.41
2022-09-29T01:14:10.414Z,996.51
2022-09-29T01:14:40.549Z,996.41
2022-09-29T01:14:59.047Z,996.41
2022-09-29T01:15:30.494Z,996.41
2022-09-29T01:15:48.250Z,996.41
2022-09-29T01:16:19.372Z,996.41
2022-09-29T01:16:40.225Z,996.31
2022-09-29T01:17:06.407Z,996.31
2022-09-29T01:17:38.842Z,996.31
2022-09-29T01:18:10.686Z,996.31
2022-09-29T01:18:40.140Z,996.41
2022-09-29T01:18:59.020Z,996.41
2022-09-29T01:19:30.331Z,996.41
2022-09-29T01:19:47.492Z,996.51
2022-09-29T01:20:18.876Z,996.51
2022-09-29T01:20:40.189Z,996.31
2022-09-29T01:21:06.376Z,996.31
2022-09-29T01:21:39.087Z,996.31
2022-09-29T01:22:10.332Z,996.41
2022-09-29T01:22:40.182Z,996.41
2022-09-29T01:22:58.849Z,996.41
2022-09-29T01:23:30.362Z,996.41
2022-09-29T01:23:47.443Z,996.41
2022-09-29T01:24:18.927Z,996.41
2022-09-29T01:24:40.142Z,996.41
2022-09-29T01:25:06.657Z,996.41
2022-09-29T01:25:38.710Z,996.41
2022-09-29T01:26:10.395Z,996.31
2022-09-29T01:26:40.121Z,996.41
2022-09-29T01:26:58.696Z,996.41
2022-09-29T01:27:30.374Z,996.41
2022-09-29T01:27:47.432Z,996.31
2022-09-29T01:28:18.791Z,996.31
2022-09-29T01:28:40.164Z,996.41
2022-09-29T01:29:06.377Z,996.41
2022-09-29T01:29:38.680Z,996.41
2022-09-29T01:30:10.456Z,996.31
2022-09-29T01:30:39.963Z,996.41
2022-09-29T01:30:58.538Z,996.41
2022-09-29T01:31:30.803Z,996.41
2022-09-29T01:31:48.387Z,996.31
2022-09-29T01:32:18.616Z,996.31
2022-09-29T01:32:40.123Z,996.41
2022-09-29T01:33:06.307Z,996.41
2022-09-29T01:33:38.700Z,996.41
2022-09-29T01:34:10.304Z,996.31
2022-09-29T01:34:40.111Z,996.41
2022-09-29T01:34:58.924Z,996.41
2022-09-29T01:35:31.277Z,996.41
2022-09-29T01:35:47.904Z,996.51
2022-09-29T01:36:18.878Z,996.51
2022-09-29T01:36:40.118Z,996.31
2022-09-29T01:37:06.473Z,996.31
2022-09-29T01:37:38.643Z,996.31
2022-09-29T01:38:10.397Z,996.31
2022-09-29T01:38:40.069Z,996.51
2022-09-29T01:38:58.814Z,996.51
2022-09-29T01:39:30.360Z,996.51
2022-09-29T01:39:47.405Z,996.61
2022-09-29T01:40:18.966Z,996.61
2022-09-29T01:40:40.256Z,996.41
2022-09-29T01:41:06.290Z,996.41
2022-09-29T01:41:39.150Z,996.41
2022-09-29T01:42:10.528Z,996.51
2022-09-29T01:42:40.101Z,996.41
2022-09-29T01:42:58.596Z,996.41
2022-09-29T01:43:30.298Z,996.41
2022-09-29T01:43:47.435Z,996.41
2022-09-29T01:44:18.751Z,996.41
2022-09-29T01:44:40.142Z,996.51
2022-09-29T01:45:06.403Z,996.51
2022-09-29T01:45:43.243Z,996.51
2022-09-29T01:46:10.522Z,996.41
2022-09-29T01:46:40.824Z,996.24
2022-09-29T01:46:58.661Z,996.24
2022-09-29T01:47:30.506Z,996.24
2022-09-29T01:47:47.400Z,996.41
2022-09-29T01:48:18.825Z,996.41
2022-09-29T01:48:40.075Z,996.41
2022-09-29T01:49:06.393Z,996.41
2022-09-29T01:49:38.776Z,996.41
2022-09-29T01:50:10.345Z,996.51
2022-09-29T01:50:40.118Z,996.41
2022-09-29T01:50:58.821Z,996.41
2022-09-29T01:51:30.384Z,996.41
2022-09-29T01:51:48.335Z,996.51
2022-09-29T01:52:19.031Z,996.51
2022-09-29T01:52:40.118Z,996.51
2022-09-29T01:53:06.366Z,996.51
2022-09-29T01:53:38.703Z,996.51
2022-09-29T01:54:10.456Z,996.24
2022-09-29T01:54:40.280Z,996.51
2022-09-29T01:54:59.293Z,996.51
2022-09-29T01:55:30.372Z,996.51
2022-09-29T01:55:47.571Z,996.41
2022-09-29T01:56:18.823Z,996.41
2022-09-29T01:56:40.085Z,996.41
2022-09-29T01:57:06.380Z,996.41
2022-09-29T01:57:38.824Z,996.41
2022-09-29T01:58:10.548Z,996.41
2022-09-29T01:58:40.110Z,996.41
2022-09-29T01:58:58.686Z,996.41
2022-09-29T01:59:30.275Z,996.41
2022-09-29T01:59:47.491Z,996.31
2022-09-29T02:00:18.820Z,996.31
2022-09-29T02:00:40.199Z,996.41
2022-09-29T02:01:06.638Z,996.41
2022-09-29T02:01:38.833Z,996.41
2022-09-29T02:02:11.211Z,996.41
2022-09-29T02:02:40.190Z,996.24
2022-09-29T02:02:58.934Z,996.24
2022-09-29T02:03:30.360Z,996.24
2022-09-29T02:03:47.499Z,996.31
2022-09-29T02:04:18.727Z,996.31
2022-09-29T02:04:40.178Z,996.51
2022-09-29T02:05:06.332Z,996.51
2022-09-29T02:05:38.638Z,996.51
2022-09-29T02:06:10.317Z,996.71
2022-09-29T02:06:40.137Z,996.51
2022-09-29T02:06:58.644Z,996.51
2022-09-29T02:07:30.333Z,996.51
2022-09-29T02:07:47.418Z,996.61
2022-09-29T02:08:21.466Z,996.61
2022-09-29T02:08:40.097Z,996.61
2022-09-29T02:09:06.435Z,996.61
2022-09-29T02:09:38.698Z,996.61
2022-09-29T02:10:10.364Z,996.51
2022-09-29T02:10:40.145Z,996.51
2022-09-29T02:10:58.594Z,996.51
2022-09-29T02:11:30.355Z,996.51
2022-09-29T02:11:49.124Z,996.71
2022-09-29T02:12:19.247Z,996.71
2022-09-29T02:12:40.069Z,996.61
2022-09-29T02:13:06.617Z,996.61
2022-09-29T02:13:38.582Z,996.61
2022-09-29T02:14:10.344Z,996.71
2022-09-29T02:14:40.112Z,996.51
2022-09-29T02:14:58.764Z,996.51
2022-09-29T02:15:30.562Z,996.51
2022-09-29T02:15:47.939Z,996.51
2022-09-29T02:16:18.951Z,996.51
2022-09-29T02:16:40.971Z,996.61
2022-09-29T02:17:06.503Z,996.61
2022-09-29T02:17:38.883Z,996.61
2022-09-29T02:18:10.963Z,996.51
2022-09-29T02:18:40.116Z,996.41
2022-09-29T02:18:58.823Z,996.41
2022-09-29T02:19:30.341Z,996.41
2022-09-29T02:19:49.108Z,996.61
2022-09-29T02:20:18.916Z,996.61
2022-09-29T02:20:40.112Z,996.41
2022-09-29T02:21:06.317Z,996.41
2022-09-29T02:21:38.768Z,996.41
2022-09-29T02:22:10.429Z,996.61
2022-09-29T02:22:40.100Z,996.31
2022-09-29T02:22:58.673Z,996.31
2022-09-29T02:23:30.423Z,996.31
2022-09-29T02:23:47.849Z,996.51
2022-09-29T02:24:18.960Z,996.51
2022-09-29T02:24:40.126Z,996.51
2022-09-29T02:25:06.412Z,996.51
2022-09-29T02:25:38.712Z,996.51
2022-09-29T02:26:10.543Z,996.61
2022-09-29T02:26:40.304Z,996.61
2022-09-29T02:26:58.921Z,996.61
2022-09-29T02:27:30.339Z,996.61
2022-09-29T02:27:47.504Z,996.51
2022-09-29T02:28:19.529Z,996.51
2022-09-29T02:28:40.515Z,996.61
2022-09-29T02:29:06.409Z,996.61
2022-09-29T02:29:38.661Z,996.61
2022-09-29T02:30:10.752Z,996.71
2022-09-29T02:30:40.275Z,996.51
2022-09-29T02:30:58.901Z,996.51
2022-09-29T02:31:30.415Z,996.51
2022-09-29T02:31:47.529Z,996.71
2022-09-29T02:32:18.821Z,996.71
2022-09-29T02:32:40.158Z,996.61
2022-09-29T02:33:06.373Z,996.61
2022-09-29T02:33:38.646Z,996.61
2022-09-29T02:34:10.317Z,996.41
2022-09-29T02:34:40.158Z,996.61
2022-09-29T02:34:58.705Z,996.61
2022-09-29T02:35:30.468Z,996.61
2022-09-29T02:35:47.545Z,996.71
2022-09-29T02:36:18.621Z,996.71
2022-09-29T02:36:40.150Z,996.51
2022-09-29T02:37:06.383Z,996.51
2022-09-29T02:37:38.853Z,996.51
2022-09-29T02:38:10.339Z,996.61
2022-09-29T02:38:40.110Z,996.61
2022-09-29T02:38:58.943Z,996.61
2022-09-29T02:39:30.243Z,996.61
2022-09-29T02:39:47.354Z,996.61
2022-09-29T02:40:18.470Z,996.61
2022-09-29T02:40:40.358Z,996.41
2022-09-29T02:41:06.598Z,996.41
2022-09-29T02:41:38.737Z,996.41
2022-09-29T02:42:10.352Z,996.51
2022-09-29T02:42:40.236Z,996.82
2022-09-29T02:42:58.576Z,996.82
2022-09-29T02:43:30.996Z,996.82
2022-09-29T02:44:02.295Z,996.61
2022-09-29T02:44:34.330Z,996.61
2022-09-29T02:45:06.459Z,996.82
2022-09-29T02:45:38.692Z,996.82
2022-09-29T02:46:10.492Z,996.61
2022-09-29T02:46:40.127Z,996.71
2022-09-29T02:46:58.628Z,996.71
2022-09-29T02:47:30.313Z,996.71
2022-09-29T02:47:47.399Z,996.51
2022-09-29T02:48:18.636Z,996.51
2022-09-29T02:48:40.129Z,996.71
2022-09-29T02:49:06.261Z,996.71
2022-09-29T02:49:38.591Z,996.71
2022-09-29T02:50:10.360Z,996.82
2022-09-29T02:50:40.120Z,996.61
2022-09-29T02:50:58.684Z,996.61
2022-09-29T02:51:30.321Z,996.61
2022-09-29T02:51:47.392Z,996.71
2022-09-29T02:52:18.561Z,996.71
2022-09-29T02:52:40.140Z,996.61
2022-09-29T02:53:06.420Z,996.61
2022-09-29T02:53:39.193Z,996.61
2022-09-29T02:54:10.362Z,996.61
2022-09-29T02:54:40.140Z,996.71
2022-09-29T02:54:58.624Z,996.71
2022-09-29T02:55:30.320Z,996.71
2022-09-29T02:55:47.335Z,996.71
2022-09-29T02:56:18.772Z,996.71
2022-09-29T02:56:40.263Z,996.71
2022-09-29T02:57:06.437Z,996.71
2022-09-29T02:57:38.710Z,996.71
2022-09-29T02:58:10.750Z,996.51
2022-09-29T02:58:43.023Z,996.82
2022-09-29T02:58:58.746Z,996.82
2022-09-29T02:59:30.321Z,996.82
2022-09-29T02:59:47.421Z,996.82
2022-09-29T03:00:18.670Z,996.82
2022-09-29T03:00:40.303Z,996.61
2022-09-29T03:01:06.453Z,996.61
2022-09-29T03:01:38.437Z,996.61
2022-09-29T03:02:10.349Z,996.82
2022-09-29T03:02:40.188Z,996.82
2022-09-29T03:02:58.836Z,996.82
2022-09-29T03:03:30.310Z,996.82
2022-09-29T03:03:48.099Z,996.71
2022-09-29T03:04:18.691Z,996.71
2022-09-29T03:04:40.199Z,996.71
2022-09-29T03:05:06.761Z,996.71
2022-09-29T03:05:38.659Z,996.71
2022-09-29T03:06:10.310Z,996.71
2022-09-29T03:06:40.160Z,996.92
2022-09-29T03:07:00.265Z,996.92
2022-09-29T03:07:30.482Z,996.92
2022-09-29T03:07:47.594Z,996.51
2022-09-29T03:08:18.700Z,996.51
2022-09-29T03:08:40.125Z,996.82
2022-09-29T03:09:06.533Z,996.82
2022-09-29T03:09:38.785Z,996.82
2022-09-29T03:10:10.411Z,996.71
2022-09-29T03:10:40.123Z,996.71
2022-09-29T03:10:58.643Z,996.71
2022-09-29T03:11:30.392Z,996.71
2022-09-29T03:11:47.791Z,996.61
2022-09-29T03:12:18.813Z,996.61
2022-09-29T03:12:40.155Z,996.61
2022-09-29T03:13:06.808Z,996.61
2022-09-29T03:13:38.530Z,996.61
2022-09-29T03:14:11.228Z,996.71
2022-09-29T03:14:40.154Z,996.61
2022-09-29T03:14:58.536Z,996.61
2022-09-29T03:15:30.342Z,996.61
2022-09-29T03:15:47.621Z,996.51
2022-09-29T03:16:18.782Z,996.51
2022-09-29T03:16:40.221Z,996.82
2022-09-29T03:17:06.343Z,996.82
2022-09-29T03:17:38.714Z,996.82
2022-09-29T03:18:10.585Z,996.51
2022-09-29T03:18:40.145Z,996.92
2022-09-29T03:18:58.888Z,996.92
2022-09-29T03:19:30.332Z,996.92
2022-09-29T03:19:47.392Z,996.51
2022-09-29T03:20:18.684Z,996.51
2022-09-29T03:20:40.300Z,996.71
2022-09-29T03:21:06.352Z,996.71
2022-09-29T03:21:38.518Z,996.71
2022-09-29T03:22:10.471Z,996.61
2022-09-29T03:22:40.140Z,996.71
2022-09-29T03:22:58.573Z,996.71
2022-09-29T03:23:30.433Z,996.71
2022-09-29T03:23:47.427Z,996.51
2022-09-29T03:24:19.489Z,996.51
2022-09-29T03:24:40.153Z,996.61
2022-09-29T03:25:06.412Z,996.61
2022-09-29T03:25:38.662Z,996.61
2022-09-29T03:26:10.307Z,996.71
2022-09-29T03:26:40.189Z,996.51
2022-09-29T03:26:58.493Z,996.51
2022-09-29T03:27:30.297Z,996.51
2022-09-29T03:27:47.392Z,996.71
2022-09-29T03:28:18.570Z,996.71
2022-09-29T03:28:40.169Z,996.51
2022-09-29T03:29:11.000Z,996.51
2022-09-29T03:29:38.495Z,996.51
2022-09-29T03:30:10.699Z,996.71
2022-09-29T03:30:40.124Z,996.71
2022-09-29T03:30:59.685Z,996.71
2022-09-29T03:31:30.362Z,996.71
2022-09-29T03:31:47.485Z,996.71
2022-09-29T03:32:18.591Z,996.71
2022-09-29T03:32:40.119Z,996.82
2022-09-29T03:33:06.336Z,996.82
2022-09-29T03:33:38.486Z,996.82
2022-09-29T03:34:10.306Z,996.71
2022-09-29T03:34:40.161Z,996.61
2022-09-29T03:34:58.583Z,996.61
2022-09-29T03:35:30.303Z,996.61
2022-09-29T03:35:47.425Z,996.82
2022-09-29T03:36:18.538Z,996.82
2022-09-29T03:36:40.132Z,996.82
2022-09-29T03:37:06.289Z,996.82
2022-09-29T03:37:38.668Z,996.82
2022-09-29T03:38:10.321Z,996.82
2022-09-29T03:38:40.116Z,996.82
2022-09-29T03:38:58.625Z,996.82
2022-09-29T03:39:31.371Z,996.82
2022-09-29T03:40:03.476Z,996.61
2022-09-29T03:40:34.290Z,996.61
2022-09-29T03:41:06.330Z,996.61
2022-09-29T03:41:38.776Z,996.61
2022-09-29T03:42:10.319Z,996.71
2022-09-29T03:42:40.154Z,996.71
2022-09-29T03:42:58.744Z,996.71
2022-09-29T03:43:30.412Z,996.71
2022-09-29T03:43:47.683Z,996.71
2022-09-29T03:44:18.509Z,996.71
2022-09-29T03:44:40.493Z,996.82
2022-09-29T03:45:06.389Z,996.82
2022-09-29T03:45:38.786Z,996.82
2022-09-29T03:46:10.492Z,996.61
2022-09-29T03:46:40.078Z,996.82
2022-09-29T03:46:58.514Z,996.82
2022-09-29T03:47:30.385Z,996.82
2022-09-29T03:47:47.657Z,996.82
2022-09-29T03:48:22.977Z,996.82
2022-09-29T03:48:40.219Z,996.71
2022-09-29T03:49:06.320Z,996.71
2022-09-29T03:49:39.368Z,996.71
2022-09-29T03:50:10.365Z,996.71
2022-09-29T03:50:40.237Z,996.82
2022-09-29T03:50:58.470Z,996.82
2022-09-29T03:51:30.426Z,996.82
2022-09-29T03:51:47.299Z,996.71
2022-09-29T03:52:18.732Z,996.71
2022-09-29T03:52:40.181Z,996.82
2022-09-29T03:53:06.350Z,996.82
2022-09-29T03:53:38.425Z,996.82
2022-09-29T03:54:10.391Z,996.61
2022-09-29T03:54:40.952Z,996.61
2022-09-29T03:54:58.422Z,996.61
2022-09-29T03:55:30.269Z,996.61
2022-09-29T03:55:47.355Z,996.82
2022-09-29T03:56:18.481Z,996.82
2022-09-29T03:56:40.181Z,996.61
2022-09-29T03:57:06.312Z,996.61
2022-09-29T03:57:38.395Z,996.61
2022-09-29T03:58:10.309Z,996.61
2022-09-29T03:58:40.212Z,996.61
2022-09-29T03:58:58.397Z,996.61
2022-09-29T03:59:30.313Z,996.61
2022-09-29T03:59:48.177Z,996.82
2022-09-29T04:00:18.934Z,996.82
2022-09-29T04:00:40.178Z,996.51
2022-09-29T04:01:06.478Z,996.51
2022-09-29T04:01:38.546Z,996.51
2022-09-29T04:02:10.373Z,996.71
2022-09-29T04:02:40.112Z,996.71
2022-09-29T04:02:58.553Z,996.71
2022-09-29T04:03:30.321Z,996.71
2022-09-29T04:03:47.600Z,996.82
2022-09-29T04:04:18.396Z,996.82
2022-09-29T04:04:40.211Z,996.82
2022-09-29T04:05:06.378Z,996.82
2022-09-29T04:05:38.509Z,996.82
2022-09-29T04:06:10.379Z,996.61
2022-09-29T04:06:40.174Z,996.61
2022-09-29T04:06:58.935Z,996.61
2022-09-29T04:07:30.297Z,996.61
2022-09-29T04:07:47.460Z,996.82
2022-09-29T04:08:18.413Z,996.82
2022-09-29T04:08:40.451Z,996.71
2022-09-29T04:09:06.572Z,996.71
2022-09-29T04:09:38.495Z,996.71
2022-09-29T04:10:10.891Z,996.71
2022-09-29T04:10:40.152Z,996.71
2022-09-29T04:10:58.493Z,996.71
2022-09-29T04:11:30.348Z,996.71
2022-09-29T04:11:47.376Z,996.92
2022-09-29T04:12:18.376Z,996.92
2022-09-29T04:12:40.138Z,996.82
2022-09-29T04:13:06.603Z,996.82
2022-09-29T04:13:38.456Z,996.82
2022-09-29T04:14:10.342Z,996.71
2022-09-29T04:14:40.213Z,996.82
2022-09-29T04:14:58.373Z,996.82
2022-09-29T04:15:30.493Z,996.82
2022-09-29T04:15:47.422Z,996.82
2022-09-29T04:16:18.608Z,996.82
2022-09-29T04:16:40.128Z,996.82
2022-09-29T04:17:06.365Z,996.82
2022-09-29T04:17:38.389Z,996.82
2022-09-29T04:18:10.444Z,996.92
2022-09-29T04:18:40.271Z,996.71
2022-09-29T04:18:58.370Z,996.71
2022-09-29T04:19:30.366Z,996.71
2022-09-29T04:19:47.388Z,996.82
2022-09-29T04:20:19.270Z,996.82
2022-09-29T04:20:40.110Z,996.71
2022-09-29T04:21:06.314Z,996.71
2022-09-29T04:21:38.509Z,996.71
2022-09-29T04:22:10.498Z,996.71
2022-09-29T04:22:40.593Z,996.61
2022-09-29T04:22:58.647Z,996.61
2022-09-29T04:23:30.367Z,996.61
2022-09-29T04:23:47.246Z,996.61
2022-09-29T04:24:18.677Z,996.61
2022-09-29T04:24:40.159Z,996.61
2022-09-29T04:25:06.368Z,996.61
2022-09-29T04:25:38.843Z,996.61
2022-09-29T04:26:10.658Z,996.61
2022-09-29T04:26:40.214Z,996.61
2022-09-29T04:26:58.601Z,996.61
2022-09-29T04:27:30.305Z,996.61
2022-09-29T04:27:47.591Z,996.92
2022-09-29T04:28:18.643Z,996.92
2022-09-29T04:28:40.255Z,996.71
2022-09-29T04:29:06.413Z,996.71
2022-09-29T04:29:38.520Z,996.71
2022-09-29T04:30:10.633Z,996.92
2022-09-29T04:30:40.218Z,996.82
2022-09-29T04:30:58.699Z,996.82
2022-09-29T04:31:30.369Z,996.82
2022-09-29T04:31:47.468Z,996.92
2022-09-29T04:32:18.404Z,996.92
2022-09-29T04:32:40.123Z,996.61
2022-09-29T04:33:06.454Z,996.61
2022-09-29T04:33:38.402Z,996.61
2022-09-29T04:34:10.307Z,996.82
2022-09-29T04:34:40.278Z,997.02
2022-09-29T04:34:58.658Z,997.02
2022-09-29T04:35:36.068Z,997.02
2022-09-29T04:36:02.266Z,996.71
2022-09-29T04:36:34.268Z,996.71
2022-09-29T04:37:06.505Z,996.61
2022-09-29T04:37:38.569Z,996.61
2022-09-29T04:38:10.292Z,996.61
2022-09-29T04:38:40.120Z,996.71
2022-09-29T04:38:58.418Z,996.71
2022-09-29T04:39:30.337Z,996.71
2022-09-29T04:39:47.453Z,996.71
2022-09-29T04:40:18.473Z,996.71
2022-09-29T04:40:40.181Z,996.71
2022-09-29T04:41:07.090Z,996.71
2022-09-29T04:41:38.403Z,996.71
2022-09-29T04:42:10.324Z,996.61
2022-09-29T04:42:40.147Z,996.82
2022-09-29T04:42:58.469Z,996.82
2022-09-29T04:43:30.610Z,996.82
2022-09-29T04:43:47.435Z,996.82
2022-09-29T04:44:18.345Z,996.82
2022-09-29T04:44:40.159Z,996.71
2022-09-29T04:45:06.445Z,996.71
2022-09-29T04:45:39.301Z,996.71
2022-09-29T04:46:10.459Z,996.71
2022-09-29T04:46:41.163Z,996.71
2022-09-29T04:46:58.376Z,996.71
2022-09-29T04:47:30.328Z,996.71
2022-09-29T04:47:47.403Z,996.71
2022-09-29T04:48:18.460Z,996.71
2022-09-29T04:48:40.175Z,996.82
2022-09-29T04:49:06.412Z,996.82
2022-09-29T04:49:38.427Z,996.82
2022-09-29T04:50:10.362Z,996.82
2022-09-29T04:50:40.945Z,996.71
2022-09-29T04:50:58.412Z,996.71
2022-09-29T04:51:30.318Z,996.71
2022-09-29T04:51:47.463Z,996.92
2022-09-29T04:52:18.874Z,996.92
2022-09-29T04:52:40.110Z,996.71
2022-09-29T04:53:06.378Z,996.71
2022-09-29T04:53:38.368Z,996.71
2022-09-29T04:54:10.377Z,996.71
2022-09-29T04:54:40.140Z,996.71
2022-09-29T04:54:58.341Z,996.71
2022-09-29T04:55:30.350Z,996.71
2022-09-29T04:55:49.357Z,996.61
2022-09-29T04:56:18.389Z,996.61
2022-09-29T04:56:40.134Z,996.92
2022-09-29T04:57:06.290Z,996.92
2022-09-29T04:57:38.482Z,996.92
2022-09-29T04:58:10.338Z,996.71
2022-09-29T04:58:40.258Z,996.61
2022-09-29T04:58:58.410Z,996.61
2022-09-29T04:59:30.344Z,996.61
2022-09-29T04:59:47.387Z,996.92
2022-09-29T05:00:18.313Z,996.92
2022-09-29T05:00:40.171Z,996.82
2022-09-29T05:01:06.527Z,996.82
2022-09-29T05:01:38.503Z,996.82
2022-09-29T05:02:10.367Z,996.82
2022-09-29T05:02:40.209Z,996.82
2022-09-29T05:02:58.531Z,996.82
2022-09-29T05:03:30.407Z,996.82
2022-09-29T05:03:47.464Z,996.71
2022-09-29T05:04:18.391Z,996.71
2022-09-29T05:04:40.187Z,996.71
2022-09-29T05:05:06.475Z,996.71
2022-09-29T05:05:39.661Z,996.71
2022-09-29T05:06:10.936Z,996.71
2022-09-29T05:06:40.126Z,996.82
2022-09-29T05:06:58.656Z,996.82
2022-09-29T05:07:30.925Z,996.82
2022-09-29T05:07:47.579Z,997.02
2022-09-29T05:08:18.706Z,997.02
2022-09-29T05:08:40.144Z,996.82
2022-09-29T05:09:06.694Z,996.82
2022-09-29T05:09:38.468Z,996.82
2022-09-29T05:10:10.402Z,996.82
2022-09-29T05:10:40.270Z,996.82
2022-09-29T05:10:58.368Z,996.82
2022-09-29T05:11:30.372Z,996.82
2022-09-29T05:11:47.477Z,996.92
2022-09-29T05:12:18.392Z,996.92
2022-09-29T05:12:44.103Z,996.82
2022-09-29T05:13:06.643Z,996.82
2022-09-29T05:13:38.364Z,996.82
2022-09-29T05:14:10.509Z,996.92
2022-09-29T05:14:40.386Z,996.92
2022-09-29T05:14:58.568Z,996.92
2022-09-29T05:15:30.440Z,996.92
2022-09-29T05:15:47.670Z,996.82
2022-09-29T05:16:19.380Z,996.82
2022-09-29T05:16:40.243Z,996.82
2022-09-29T05:17:06.404Z,996.82
2022-09-29T05:17:38.370Z,996.82
2022-09-29T05:18:10.354Z,997.02
2022-09-29T05:18:40.132Z,996.92
2022-09-29T05:18:58.341Z,996.92
2022-09-29T05:19:30.187Z,996.92
2022-09-29T05:19:47.439Z,997.02
2022-09-29T05:20:18.365Z,997.02
2022-09-29T05:20:45.567Z,997.02
2022-09-29T05:21:38.578Z,997.02
2022-09-29T05:22:10.487Z,997.12
2022-09-29T05:22:40.324Z,996.92
2022-09-29T05:22:59.733Z,996.92
2022-09-29T05:23:30.535Z,996.92
2022-09-29T05:23:47.620Z,997.22
2022-09-29T05:24:18.461Z,997.22
2022-09-29T05:24:40.415Z,997.12
2022-09-29T05:25:06.635Z,997.12
2022-09-29T05:25:38.590Z,997.12
2022-09-29T05:26:10.479Z,997.22
2022-09-29T05:26:40.311Z,997.43
2022-09-29T05:26:58.755Z,997.43
2022-09-29T05:27:30.513Z,997.43
2022-09-29T05:27:47.598Z,997.32
2022-09-29T05:28:18.724Z,997.32
2022-09-29T05:28:40.299Z,997.32
2022-09-29T05:29:06.606Z,997.32
2022-09-29T05:29:38.564Z,997.32
2022-09-29T05:30:10.892Z,997.32
2022-09-29T05:30:40.415Z,997.32
2022-09-29T05:30:58.624Z,997.32
2022-09-29T05:31:31.054Z,997.32
2022-09-29T05:31:48.320Z,997.22
2022-09-29T05:32:18.535Z,997.22
2022-09-29T05:32:40.329Z,997.32
2022-09-29T05:33:06.568Z,997.32
2022-09-29T05:33:38.513Z,997.32
2022-09-29T05:34:10.475Z,997.43
2022-09-29T05:34:40.357Z,997.32